KAID/AID METAR and TAF weather

Enter ICAO airport designator
Station Type Date Time Source
KAID METAR 2019/10/20 14:35 UTC NOAA

KAID 201435Z AUTO 00000KT 10SM OVC060 14/10 A2990 RMK AO2 T01400095


Station Type Date Time Source
KAID Decoded METAR 2019/10/20 14:35 UTC NOAA

Anderson Municipal, IN, United States (KAID) 40-07N 085-37W
Oct 20, 2019 - 10:35 AM EDT / 2019.10.20 1435 UTC
Wind: Calm:0
Visibility: 10 mile(s):0
Sky conditions: overcast
Temperature: 57.2 F (14.0 C)
Dew Point: 49.1 F (9.5 C)
Relative Humidity: 74%
Pressure (altimeter): 29.9 in. Hg (1012 hPa)
ob: KAID 201435Z AUTO 00000KT 10SM OVC060 14/10 A2990 RMK AO2 T01400095
cycle: 14

Station Type Date Time Source
KAID TAF UTC NOAA

Error!

Example: see airport list